Air Navigation Services of Czech Republic
Airport: LKLN Updated:  18.07.2019 16:55:26  UTC
 METAR LKLN 18.07. 17:00 ...
METAR LKLN 181700Z AUTO VRB05KT 9999 SCT094 27/06 Q1012=